Time;durP1;ratioP1;P1;durP2;ratioP2;P2;SDS_P1;SDS_P2;PMS_P1;PMS_P2;Temp;Humidity;BMP_temperature;BMP_pressure;BME280_temperature;BME280_humidity;BME280_pressure;Samples;Min_cycle;Max_cycle;Signal;HPM_P1;HPM_P2
2022/09/28 00:02:17;;;;;;;13.10;7.35;;;;;;;22.75;58.16;100063.55;1680307;84;21124;-51
2022/09/28 00:04:43;;;;;;;13.10;7.08;;;;;;;22.73;57.66;100057.54;1674646;85;21084;-53
2022/09/28 00:07:11;;;;;;;8.45;6.78;;;;;;;22.72;57.65;100056.34;1684510;84;21032;-54
2022/09/28 00:09:38;;;;;;;9.90;6.47;;;;;;;22.70;57.77;100050.33;1678193;85;21084;-52
2022/09/28 00:12:05;;;;;;;11.03;7.28;;;;;;;22.65;57.93;100040.95;1678353;85;21049;-52
2022/09/28 00:14:33;;;;;;;11.05;7.28;;;;;;;22.64;57.90;100045.91;1677520;85;21005;-55
2022/09/28 00:17:00;;;;;;;26.45;10.80;;;;;;;22.63;57.81;100045.53;1672397;85;21095;-52
2022/09/28 00:19:27;;;;;;;34.20;13.35;;;;;;;22.62;57.92;100045.67;1680816;85;21084;-55
2022/09/28 00:21:53;;;;;;;45.73;17.55;;;;;;;22.61;58.09;100054.58;1679290;85;21029;-53
2022/09/28 00:24:20;;;;;;;42.17;14.43;;;;;;;22.59;58.35;100057.36;1678243;84;21057;-53
2022/09/28 00:26:54;;;;;;;31.33;13.32;;;;;;;22.60;58.62;100061.72;1678322;84;21029;-55
2022/09/28 00:29:32;;;;;;;34.53;12.78;;;;;;;22.60;58.98;100060.39;1632302;87;21065;-56
2022/09/28 00:32:10;;;;;;;24.05;11.85;;;;;;;22.61;59.28;100056.75;1617157;87;21702;-56
2022/09/28 00:34:44;;;;;;;22.98;11.12;;;;;;;22.63;59.51;100060.59;1638684;87;21610;-54
2022/09/28 00:37:12;;;;;;;23.32;11.03;;;;;;;22.65;59.81;100058.19;1617264;86;21085;-54
2022/09/28 00:39:42;;;;;;;18.45;9.68;;;;;;;22.66;59.97;100059.03;1608229;88;21117;-58
2022/09/28 00:42:14;;;;;;;14.10;7.90;;;;;;;22.70;60.16;100062.27;1621243;87;21680;-52
2022/09/28 00:44:46;;;;;;;13.45;8.28;;;;;;;22.72;60.28;100061.17;1556671;91;21112;-53
2022/09/28 00:47:24;;;;;;;14.73;8.10;;;;;;;22.75;60.45;100049.48;1574658;90;21572;-54
2022/09/28 00:50:06;;;;;;;12.15;8.80;;;;;;;22.78;60.59;100050.53;1572930;90;21608;-54
2022/09/28 00:52:56;;;;;;;9.83;8.18;;;;;;;22.79;60.73;100045.13;1574307;90;21089;-53
2022/09/28 00:55:31;;;;;;;9.98;8.58;;;;;;;22.84;60.85;100047.37;1558868;90;21083;-53
2022/09/28 00:57:59;;;;;;;15.03;8.13;;;;;;;22.87;60.92;100047.13;1448149;99;21193;-55
2022/09/28 01:00:26;;;;;;;12.70;8.05;;;;;;;22.89;60.96;100045.19;1457224;98;21123;-56
2022/09/28 01:02:54;;;;;;;12.37;8.40;;;;;;;22.92;60.98;100040.94;1457326;98;21120;-57
2022/09/28 01:05:21;;;;;;;10.63;8.90;;;;;;;22.94;61.02;100048.28;1457260;97;21108;-53
2022/09/28 01:07:49;;;;;;;17.35;9.70;;;;;;;22.97;61.16;100048.04;1457283;98;21140;-58
2022/09/28 01:10:17;;;;;;;11.88;8.70;;;;;;;23.00;61.22;100050.45;1457315;97;21119;-53
2022/09/28 01:12:44;;;;;;;12.80;9.18;;;;;;;23.03;61.22;100048.84;1457184;97;21139;-57
2022/09/28 01:15:10;;;;;;;12.13;8.08;;;;;;;23.03;61.20;100043.06;1457198;97;21132;-51
2022/09/28 01:17:47;;;;;;;11.50;8.38;;;;;;;23.06;61.17;100041.97;1457280;98;21149;-53
2022/09/28 01:20:36;;;;;;;12.07;9.15;;;;;;;23.07;61.18;100043.16;1437484;98;21609;-53
2022/09/28 01:23:18;;;;;;;9.10;8.10;;;;;;;23.09;61.21;100039.04;1435683;99;21114;-53
2022/09/28 01:28:26;;;;;;;10.82;7.70;;;;;;;23.10;61.17;100032.78;1433895;100;21627;-54
2022/09/28 01:30:57;;;;;;;;;;;;;;;23.09;61.21;100023.13;1434717;100;21130;-55
2022/09/28 01:33:27;;;;;;;9.78;7.70;;;;;;;23.08;61.18;100013.49;1422231;100;20128;-55
2022/09/28 01:36:10;;;;;;;10.35;8.65;;;;;;;23.07;61.15;100013.13;1462408;97;21118;-57
2022/09/28 01:38:46;;;;;;;13.22;8.83;;;;;;;23.05;61.09;100012.41;1473545;97;21178;-52
2022/09/28 01:41:13;;;;;;;8.45;7.55;;;;;;;23.04;60.97;100006.25;1467290;96;21112;-55
2022/09/28 01:43:42;;;;;;;8.83;7.58;;;;;;;23.01;60.88;100005.20;1509974;94;21071;-52
2022/09/28 01:46:32;;;;;;;15.72;8.30;;;;;;;23.00;60.85;100006.67;1494048;95;21128;-52
2022/09/28 01:49:07;;;;;;;12.00;9.00;;;;;;;22.98;60.68;100018.72;1510225;94;21045;-60
2022/09/28 01:51:55;;;;;;;10.85;8.70;;;;;;;22.96;60.60;100017.16;1493946;95;21596;-58
2022/09/28 01:54:34;;;;;;;11.95;8.78;;;;;;;22.93;60.52;100013.45;1493864;94;21608;-55
2022/09/28 01:57:22;;;;;;;15.98;9.65;;;;;;;22.90;60.53;100015.87;1520901;93;21125;-52
2022/09/28 01:59:59;;;;;;;8.95;7.33;;;;;;;22.88;60.47;100009.85;1516724;94;21092;-53
2022/09/28 02:02:31;;;;;;;9.05;7.10;;;;;;;22.86;60.48;100010.94;1551649;91;21106;-54
2022/09/28 02:05:25;;;;;;;11.53;8.08;;;;;;;22.85;60.51;100022.54;1527704;92;21061;-57
2022/09/28 02:08:10;;;;;;;8.88;6.67;;;;;;;22.83;60.56;100019.17;1488549;96;21170;-52
2022/09/28 02:10:51;;;;;;;11.43;7.28;;;;;;;22.78;60.91;100024.01;1464271;96;21167;-55
2022/09/28 02:13:25;;;;;;;7.63;6.73;;;;;;;22.75;61.07;100018.98;1464426;96;21682;-55
2022/09/28 02:16:01;;;;;;;7.50;6.75;;;;;;;22.72;61.16;100025.84;1464838;96;21181;-52
2022/09/28 02:18:29;;;;;;;7.97;7.17;;;;;;;22.65;61.33;100028.16;1519874;94;21131;-59
2022/09/28 02:21:08;;;;;;;8.48;7.65;;;;;;;22.60;61.45;100029.05;1520688;93;21628;-54
2022/09/28 02:23:35;;;;;;;9.03;8.10;;;;;;;22.54;61.66;100031.70;1516795;93;21133;-54
2022/09/28 02:26:07;;;;;;;8.93;8.03;;;;;;;22.50;61.74;100028.91;1499543;93;21136;-56
2022/09/28 02:28:36;;;;;;;10.08;7.35;;;;;;;22.47;61.88;100025.20;1522429;93;21099;-51
2022/09/28 02:31:03;;;;;;;8.30;7.47;;;;;;;22.44;61.96;100026.77;1529159;92;21100;-53
2022/09/28 02:33:37;;;;;;;8.60;7.87;;;;;;;22.44;61.91;100026.77;1552241;91;21155;-50
2022/09/28 02:36:05;;;;;;;9.18;8.38;;;;;;;22.43;61.86;100032.20;1536347;92;21055;-60
2022/09/28 02:38:36;;;;;;;9.35;7.97;;;;;;;22.40;61.74;100033.28;1554288;90;21258;-51
2022/09/28 02:41:10;;;;;;;9.03;8.20;;;;;;;22.38;61.60;100029.92;1547395;91;21160;-55
2022/09/28 02:43:54;;;;;;;8.35;7.53;;;;;;;22.36;61.58;100023.90;1547687;92;21152;-58
2022/09/28 02:46:56;;;;;;;9.45;8.50;;;;;;;22.37;61.57;100021.62;1566088;90;21073;-54
2022/09/28 02:49:51;;;;;;;9.20;7.90;;;;;;;22.39;61.45;100025.47;1569881;91;21603;-57
2022/09/28 02:52:48;;;;;;;10.82;8.70;;;;;;;22.42;61.26;100030.02;1566684;90;21622;-53
2022/09/28 02:55:43;;;;;;;9.50;7.75;;;;;;;22.45;61.08;100031.11;1520313;93;21080;-54
2022/09/28 02:58:36;;;;;;;9.53;8.63;;;;;;;22.47;60.85;100030.50;1525062;93;21120;-52
2022/09/28 03:01:34;;;;;;;9.43;8.18;;;;;;;22.47;60.69;100027.84;1578930;90;21128;-55
2022/09/28 03:04:24;;;;;;;9.38;8.43;;;;;;;22.47;60.73;100027.00;1572609;91;21138;-53
2022/09/28 03:07:16;;;;;;;9.83;8.73;;;;;;;22.49;60.65;100031.22;1560412;90;21101;-56
2022/09/28 03:10:17;;;;;;;10.08;9.05;;;;;;;22.42;60.79;100036.65;1572066;90;21066;-55
2022/09/28 03:12:45;;;;;;;9.08;8.18;;;;;;;22.42;60.78;100028.70;1588589;89;21139;-56
2022/09/28 03:15:22;;;;;;;9.03;8.13;;;;;;;22.43;60.81;100035.70;1588649;89;21097;-55
2022/09/28 03:17:49;;;;;;;9.55;8.65;;;;;;;22.45;60.80;100035.56;1588664;89;21597;-53
2022/09/28 03:20:17;;;;;;;9.03;8.18;;;;;;;22.46;60.65;100039.41;1588490;90;21098;-53
2022/09/28 03:22:43;;;;;;;9.35;8.38;;;;;;;22.54;60.46;100037.47;1588833;89;21595;-54
2022/09/28 03:25:11;;;;;;;11.30;8.50;;;;;;;22.58;60.32;100029.18;1592592;84;21110;-52
2022/09/28 03:27:38;;;;;;;8.78;7.92;;;;;;;22.60;60.19;100019.28;1611364;84;21045;-52
2022/09/28 03:30:07;;;;;;;9.28;8.48;;;;;;;22.61;60.13;100018.30;1598839;89;21033;-52
2022/09/28 03:32:36;;;;;;;10.28;8.85;;;;;;;22.60;60.25;100024.59;1584835;89;21025;-52
2022/09/28 03:35:06;;;;;;;9.60;8.63;;;;;;;22.63;60.13;100028.30;1602476;89;21139;-57
2022/09/28 03:37:33;;;;;;;11.20;9.20;;;;;;;22.64;60.14;100031.32;1604574;89;21013;-52
2022/09/28 03:40:01;;;;;;;8.58;7.78;;;;;;;22.66;60.11;100029.86;1601527;89;21557;-53
2022/09/28 03:42:28;;;;;;;11.53;8.68;;;;;;;22.66;60.08;100027.20;1591448;89;21081;-55
2022/09/28 03:44:54;;;;;;;9.85;8.90;;;;;;;22.67;60.07;100018.78;1604295;89;21140;-52
2022/09/28 03:47:21;;;;;;;9.75;8.80;;;;;;;22.65;60.12;100026.36;1602717;89;21584;-53
2022/09/28 03:49:48;;;;;;;9.65;8.40;;;;;;;22.67;60.19;100034.69;1610612;89;21056;-54
2022/09/28 03:52:14;;;;;;;9.95;8.95;;;;;;;22.67;60.10;100038.66;1594673;89;21088;-53
2022/09/28 03:54:41;;;;;;;10.13;9.15;;;;;;;22.67;60.05;100039.48;1637262;85;21009;-53
2022/09/28 03:57:08;;;;;;;10.80;9.08;;;;;;;22.68;60.06;100041.66;1674403;85;20974;-54
2022/09/28 03:59:36;;;;;;;10.58;9.53;;;;;;;22.64;60.11;100040.61;1680992;85;21466;-52
2022/09/28 04:02:04;;;;;;;13.50;11.48;;;;;;;22.62;60.21;100042.54;1678370;85;21033;-55
2022/09/28 04:04:33;;;;;;;14.63;10.98;;;;;;;22.63;60.24;100040.23;1670564;85;21005;-57
2022/09/28 04:06:59;;;;;;;11.95;10.85;;;;;;;22.62;60.23;100031.94;1676473;85;21033;-52
2022/09/28 04:09:27;;;;;;;12.05;10.75;;;;;;;22.61;60.28;100039.52;1676231;85;21028;-57
2022/09/28 04:11:54;;;;;;;12.70;11.35;;;;;;;22.62;60.35;100038.56;1676875;85;21061;-54
2022/09/28 04:14:23;;;;;;;16.80;11.22;;;;;;;22.62;60.42;100041.22;1672079;85;21021;-57
2022/09/28 04:16:53;;;;;;;15.63;11.97;;;;;;;22.61;60.55;100038.19;1675981;85;21041;-53
2022/09/28 04:19:19;;;;;;;17.98;12.63;;;;;;;22.61;60.57;100034.21;1676233;85;21029;-52
2022/09/28 04:22:04;;;;;;;15.90;11.70;;;;;;;22.62;60.61;100037.72;1668479;85;21025;-52
2022/09/28 04:24:30;;;;;;;15.43;12.53;;;;;;;22.63;60.66;100043.36;1676472;85;21093;-54
2022/09/28 04:29:14;;;;;;;16.73;13.18;;;;;;;22.62;60.73;100036.39;1684526;85;21037;-55
2022/09/28 04:29:27;;;;;;;18.37;13.05;;;;;;;22.63;60.80;100040.23;1678895;85;21018;-58
2022/09/28 04:31:55;;;;;;;18.10;12.37;;;;;;;22.64;60.90;100043.73;1676321;85;21037;-54
2022/09/28 04:34:35;;;;;;;15.50;12.50;;;;;;;22.65;60.99;100039.62;1658192;86;21079;-53
2022/09/28 04:37:02;;;;;;;15.55;12.25;;;;;;;22.66;61.05;100041.80;1663218;85;21065;-55
2022/09/28 04:39:29;;;;;;;13.53;12.13;;;;;;;22.70;61.12;100050.33;1630786;86;21135;-52
2022/09/28 04:41:57;;;;;;;12.75;11.33;;;;;;;22.70;61.15;100049.85;1650308;86;21523;-55
2022/09/28 04:44:23;;;;;;;13.53;11.75;;;;;;;22.73;61.18;100050.09;1645833;86;21114;-55
2022/09/28 04:46:55;;;;;;;14.38;12.23;;;;;;;22.73;61.18;100043.46;1619848;87;21083;-56
2022/09/28 04:49:30;;;;;;;13.88;12.15;;;;;;;22.74;61.35;100039.83;1619600;88;21119;-56
2022/09/28 04:51:59;;;;;;;15.50;12.40;;;;;;;22.76;61.52;100043.19;1654621;86;21045;-59
2022/09/28 04:54:26;;;;;;;13.32;12.03;;;;;;;22.78;61.72;100034.62;1625492;87;21083;-51
2022/09/28 04:56:53;;;;;;;15.03;12.53;;;;;;;22.80;61.82;100043.29;1622535;88;21078;-51
2022/09/28 04:59:19;;;;;;;13.90;12.58;;;;;;;22.82;61.94;100041.35;1624024;86;21047;-54
2022/09/28 05:01:46;;;;;;;14.58;12.98;;;;;;;22.83;62.08;100043.05;1624249;88;21563;-51
2022/09/28 05:04:29;;;;;;;14.05;12.68;;;;;;;22.85;62.12;100039.78;1654995;86;21030;-53
2022/09/28 05:06:58;;;;;;;16.87;13.20;;;;;;;22.88;62.26;100044.34;1625717;87;21070;-55
2022/09/28 05:09:25;;;;;;;16.00;13.08;;;;;;;22.91;62.35;100045.91;1622180;88;21614;-55
2022/09/28 05:11:52;;;;;;;16.67;12.78;;;;;;;22.93;62.37;100048.79;1623601;87;21114;-53
2022/09/28 05:14:21;;;;;;;19.80;13.38;;;;;;;22.95;62.30;100056.61;1634734;87;21526;-51
2022/09/28 05:16:49;;;;;;;21.62;13.20;;;;;;;22.97;62.08;100058.65;1648286;86;21074;-53
2022/09/28 05:19:17;;;;;;;17.07;12.05;;;;;;;22.99;62.00;100053.58;1606514;89;21121;-55
2022/09/28 05:21:45;;;;;;;14.40;11.73;;;;;;;23.01;61.85;100049.46;1590755;90;21592;-53
2022/09/28 05:24:12;;;;;;;16.77;10.80;;;;;;;23.02;61.79;100049.33;1608779;88;21536;-56
2022/09/28 05:26:40;;;;;;;11.20;10.10;;;;;;;23.04;61.83;100043.91;1588510;90;21114;-58
2022/09/28 05:29:08;;;;;;;11.00;9.48;;;;;;;23.04;61.70;100039.94;1598342;88;21497;-52
2022/09/28 05:31:48;;;;;;;10.63;8.88;;;;;;;23.05;61.50;100047.76;1601641;89;21083;-56
2022/09/28 05:34:16;;;;;;;9.83;8.83;;;;;;;23.07;61.15;100046.29;1602132;89;21480;-53
2022/09/28 05:36:44;;;;;;;8.90;8.13;;;;;;;23.08;61.12;100045.34;1602540;89;21043;-57
2022/09/28 05:39:11;;;;;;;10.45;8.38;;;;;;;23.10;61.08;100043.39;1601832;88;21052;-56
2022/09/28 05:41:38;;;;;;;9.00;8.13;;;;;;;23.12;60.81;100037.47;1599952;89;21075;-52
2022/09/28 05:44:05;;;;;;;13.40;8.23;;;;;;;23.14;60.77;100034.20;1599639;89;21595;-52
2022/09/28 05:46:33;;;;;;;10.03;8.05;;;;;;;23.16;60.66;100037.56;1599784;89;21048;-55
2022/09/28 05:49:00;;;;;;;10.63;8.20;;;;;;;23.19;60.50;100035.96;1598182;89;21104;-53
2022/09/28 05:51:28;;;;;;;11.75;8.60;;;;;;;23.23;60.39;100041.36;1601655;89;21559;-55
2022/09/28 05:53:55;;;;;;;8.65;7.78;;;;;;;23.27;60.20;100050.75;1602239;89;21070;-53
2022/09/28 05:56:22;;;;;;;8.63;7.28;;;;;;;23.31;59.92;100053.02;1623291;85;21080;-57
2022/09/28 05:58:50;;;;;;;8.10;7.40;;;;;;;23.37;59.45;100054.33;1649646;86;21101;-53
2022/09/28 06:01:19;;;;;;;17.48;8.63;;;;;;;23.40;59.24;100052.75;1680354;83;21064;-53
2022/09/28 06:03:46;;;;;;;12.28;6.95;;;;;;;23.42;59.06;100062.75;1695743;84;20989;-53
2022/09/28 06:06:12;;;;;;;8.15;6.90;;;;;;;23.45;58.73;100059.85;1682450;84;21005;-55
2022/09/28 06:08:44;;;;;;;7.45;6.65;;;;;;;23.47;58.28;100051.27;1680985;85;21025;-56
2022/09/28 06:11:13;;;;;;;7.10;6.23;;;;;;;23.49;58.20;100046.66;1675599;85;21620;-55
2022/09/28 06:13:39;;;;;;;11.40;6.95;;;;;;;23.52;58.24;100053.02;1678617;84;21073;-56
2022/09/28 06:16:07;;;;;;;8.73;5.70;;;;;;;23.57;57.94;100050.83;1668605;85;21051;-53
2022/09/28 06:18:35;;;;;;;6.33;5.65;;;;;;;23.63;57.69;100056.94;1672744;85;21038;-60
2022/09/28 06:21:14;;;;;;;7.03;5.72;;;;;;;23.67;57.51;100054.36;1675405;85;21024;-53
2022/09/28 06:23:42;;;;;;;;;;;;;;;23.72;57.33;100053.46;1676290;85;21517;-53
2022/09/28 06:26:09;;;;;;;7.25;5.62;;;;;;;23.77;57.07;100056.58;1678649;85;20135;-52
2022/09/28 06:28:36;;;;;;;8.55;5.53;;;;;;;23.80;56.77;100057.62;1678320;85;21064;-51
2022/09/28 06:31:03;;;;;;;6.37;5.47;;;;;;;23.84;56.58;100059.06;1680203;84;21029;-54
2022/09/28 06:33:31;;;;;;;8.63;5.72;;;;;;;23.88;56.36;100054.31;1681229;85;21069;-55
2022/09/28 06:35:58;;;;;;;7.35;5.85;;;;;;;23.94;56.10;100054.62;1680234;85;21072;-54
2022/09/28 06:38:26;;;;;;;6.22;5.42;;;;;;;24.05;55.73;100059.03;1678407;84;21537;-52
2022/09/28 06:40:56;;;;;;;7.78;5.20;;;;;;;24.11;55.50;100056.64;1671656;85;21577;-51
2022/09/28 06:43:22;;;;;;;5.50;5.00;;;;;;;24.20;55.15;100061.16;1653611;85;21549;-54
2022/09/28 06:46:08;;;;;;;5.95;4.62;;;;;;;24.28;54.80;100062.30;1665835;85;21029;-56
2022/09/28 06:48:53;;;;;;;6.12;4.55;;;;;;;24.36;54.62;100047.31;1669414;85;21045;-55
2022/09/28 06:51:32;;;;;;;7.17;5.75;;;;;;;24.44;54.23;100038.67;1667766;85;21041;-57
2022/09/28 06:54:15;;;;;;;6.12;4.80;;;;;;;24.48;54.04;100044.91;1666048;85;21155;-54
2022/09/28 06:56:43;;;;;;;6.40;5.03;;;;;;;24.53;53.80;100051.13;1672133;85;21084;-56
2022/09/28 06:59:10;;;;;;;6.67;5.12;;;;;;;24.55;53.52;100051.82;1676483;85;21537;-54
2022/09/28 07:01:38;;;;;;;9.10;4.92;;;;;;;24.55;53.37;100052.67;1677159;85;21529;-51
2022/09/28 07:04:07;;;;;;;7.33;4.65;;;;;;;24.57;53.61;100059.17;1676771;85;21005;-53
2022/09/28 07:06:52;;;;;;;6.50;5.08;;;;;;;24.60;54.41;100060.24;1676340;85;21517;-55
2022/09/28 07:09:32;;;;;;;4.75;4.33;;;;;;;24.61;54.63;100065.89;1676972;85;21041;-52
2022/09/28 07:12:12;;;;;;;7.00;5.03;;;;;;;24.62;54.65;100068.92;1614976;88;21068;-54
2022/09/28 07:22:03;;;;;;;5.37;3.45;;;;;;;24.43;54.49;100048.94;1786726;79;27016;-51
2022/09/28 07:24:30;;;;;;;5.83;3.70;;;;;;;24.51;53.86;100046.43;1755381;80;21034;-52
2022/09/28 07:26:56;;;;;;;4.17;3.30;;;;;;;24.53;53.75;100042.66;1751878;81;21054;-52
2022/09/28 07:29:31;;;;;;;4.85;2.10;;;;;;;24.53;53.36;100051.13;1719473;82;21062;-51
2022/09/28 07:32:16;;;;;;;4.87;2.22;;;;;;;24.53;52.40;100051.13;1653563;85;21049;-51
2022/09/28 07:34:45;;;;;;;5.75;1.67;;;;;;;24.50;51.73;100054.08;1551863;91;21074;-52
2022/09/28 07:37:25;;;;;;;3.52;2.00;;;;;;;24.45;50.99;100051.83;1560434;90;21111;-53
2022/09/28 07:42:38;;;;;;;3.80;1.70;;;;;;;24.36;51.03;100060.61;1565875;91;21079;-52
2022/09/28 07:45:07;;;;;;;4.62;1.90;;;;;;;24.35;50.79;100060.76;1569895;91;21245;-52
2022/09/28 07:47:33;;;;;;;1.72;1.52;;;;;;;24.35;50.77;100064.75;1564082;90;21067;-52
2022/09/28 07:50:16;;;;;;;6.67;1.70;;;;;;;24.32;50.91;100059.21;1563225;90;21128;-54
2022/09/28 07:52:57;;;;;;;1.65;1.37;;;;;;;24.30;50.86;100060.34;1585468;89;21113;-52
2022/09/28 07:55:33;;;;;;;3.35;1.65;;;;;;;24.27;51.02;100068.11;1589644;89;21069;-50
2022/09/28 07:58:19;;;;;;;2.20;1.30;;;;;;;24.23;50.87;100066.18;1585506;89;21208;-53
2022/09/28 08:00:51;;;;;;;2.33;1.72;;;;;;;24.21;50.52;100065.48;1552157;91;21199;-53
2022/09/28 08:03:20;;;;;;;4.60;1.30;;;;;;;24.18;50.17;100063.11;1550872;91;21124;-53
2022/09/28 08:05:47;;;;;;;3.10;1.40;;;;;;;24.15;50.16;100065.21;1547145;91;21608;-53
2022/09/28 08:08:17;;;;;;;2.33;1.40;;;;;;;24.14;50.33;100067.02;1551587;91;21088;-53
2022/09/28 08:10:44;;;;;;;3.02;1.37;;;;;;;24.13;50.40;100065.32;1555989;92;21096;-53
2022/09/28 08:13:19;;;;;;;3.60;1.67;;;;;;;24.12;50.36;100071.63;1591217;88;21095;-53
2022/09/28 08:16:07;;;;;;;3.02;1.60;;;;;;;24.11;50.23;100071.77;1597980;88;21134;-52
2022/09/28 08:18:38;;;;;;;7.62;1.95;;;;;;;24.10;50.54;100058.97;1582409;88;21210;-52
2022/09/28 08:23:51;;;;;;;1.70;1.35;;;;;;;24.15;50.25;100061.22;1619912;87;21041;-51
2022/09/28 08:26:18;;;;;;;2.58;1.25;;;;;;;24.18;49.78;100063.11;1617458;88;21604;-52
2022/09/28 08:28:46;;;;;;;3.72;1.57;;;;;;;24.20;49.63;100062.97;1610824;88;21069;-52
2022/09/28 08:31:27;;;;;;;4.10;1.52;;;;;;;24.20;49.75;100066.47;1560388;89;21144;-52
2022/09/28 08:34:08;;;;;;;2.22;1.30;;;;;;;24.20;49.89;100069.13;1526057;92;21585;-53
2022/09/28 08:36:49;;;;;;;2.80;1.40;;;;;;;24.20;49.87;100062.97;1493553;94;21089;-53
2022/09/28 08:39:26;;;;;;;3.70;1.80;;;;;;;24.19;50.01;100063.45;1470748;96;21192;-51
2022/09/28 08:42:23;;;;;;;4.12;1.72;;;;;;;24.21;50.32;100072.64;1505537;94;21148;-52
2022/09/28 08:50:58;;;;;;;3.17;1.60;;;;;;;24.36;50.95;100073.09;1442746;97;21113;-52
2022/09/28 08:53:43;;;;;;;4.40;2.12;;;;;;;24.43;51.16;100068.89;1418431;100;21122;-52
2022/09/28 08:56:29;;;;;;;3.77;2.42;;;;;;;24.49;51.03;100063.02;1398592;100;21678;-52
2022/09/28 08:58:59;;;;;;;4.30;1.90;;;;;;;24.54;50.93;100069.62;1356819;104;21627;-51
2022/09/28 09:01:31;;;;;;;4.62;2.30;;;;;;;24.58;51.11;100080.34;1361321;104;21626;-52
2022/09/28 09:03:59;;;;;;;5.92;2.35;;;;;;;24.63;51.25;100081.23;1366435;104;21615;-52
2022/09/28 09:07:01;;;;;;;7.17;1.90;;;;;;;24.67;50.92;100076.83;1368214;101;21703;-51
2022/09/28 09:10:11;;;;;;;3.75;1.75;;;;;;;24.72;51.11;100079.08;1369605;103;21572;-51
2022/09/28 09:13:07;;;;;;;1.50;1.40;;;;;;;24.78;51.08;100077.22;1383642;102;21155;-52
2022/09/28 09:15:56;;;;;;;2.33;1.52;;;;;;;24.84;49.26;100066.86;1395377;102;21145;-52
2022/09/28 09:18:38;;;;;;;3.25;1.40;;;;;;;24.93;48.03;100065.19;1383644;102;21671;-52
2022/09/28 09:21:33;;;;;;;1.95;1.82;;;;;;;25.03;47.16;100071.34;1378918;102;21687;-54
2022/09/28 09:24:12;;;;;;;3.25;1.80;;;;;;;25.14;46.85;100065.03;1339052;105;21204;-53
2022/09/28 09:26:40;;;;;;;3.75;1.52;;;;;;;25.24;46.27;100064.03;1376455;102;21205;-53
2022/09/28 09:29:32;;;;;;;2.10;1.90;;;;;;;25.34;45.88;100062.19;1374039;102;21342;-53
2022/09/28 09:32:20;;;;;;;2.55;1.55;;;;;;;25.41;45.46;100060.64;1339166;103;21159;-53
2022/09/28 09:34:57;;;;;;;2.95;1.47;;;;;;;25.49;45.16;100064.75;1337833;105;21202;-53
2022/09/28 09:37:51;;;;;;;1.60;1.50;;;;;;;25.53;45.03;100059.48;1301797;107;21811;-53
2022/09/28 09:41:34;;;;;;;;;;;;;;;25.57;44.71;100072.89;1271942;111;21702;-53
2022/09/28 09:44:45;;;;;;;1.62;1.52;;;;;;;25.62;44.21;100068.44;1285772;108;20225;-52
2022/09/28 09:47:21;;;;;;;2.05;1.87;;;;;;;25.64;44.12;100061.98;1295702;109;21696;-53
2022/09/28 09:50:13;;;;;;;4.55;2.22;;;;;;;25.67;44.15;100069.70;1312593;108;21200;-53
2022/09/28 09:52:48;;;;;;;2.83;2.07;;;;;;;25.70;44.20;100066.73;1306940;107;21146;-51
2022/09/28 09:55:40;;;;;;;5.03;2.15;;;;;;;25.76;43.80;100061.33;1320111;107;21366;-52
2022/09/28 09:58:35;;;;;;;2.40;2.20;;;;;;;25.80;43.90;100058.72;1361690;104;21205;-53
2022/09/28 10:01:13;;;;;;;3.05;2.70;;;;;;;25.84;43.59;100067.58;1349289;105;21213;-53
2022/09/28 10:03:47;;;;;;;2.83;2.60;;;;;;;25.88;43.25;100075.30;1366260;104;21149;-51
2022/09/28 10:06:19;;;;;;;2.92;2.72;;;;;;;25.89;43.16;100083.63;1378271;102;21181;-52
2022/09/28 10:09:05;;;;;;;2.80;2.60;;;;;;;25.89;43.09;100091.62;1401607;101;21103;-51
2022/09/28 10:11:44;;;;;;;2.72;2.52;;;;;;;25.90;43.08;100090.65;1406811;100;21196;-53
2022/09/28 10:14:21;;;;;;;3.15;2.90;;;;;;;25.93;42.98;100085.86;1404537;96;21121;-52
2022/09/28 10:16:52;;;;;;;3.90;2.85;;;;;;;25.97;43.07;100094.39;1433822;99;21150;-51
2022/09/28 10:19:31;;;;;;;3.00;2.80;;;;;;;25.97;42.78;100086.39;1373832;103;21164;-51
2022/09/28 10:22:06;;;;;;;3.40;2.95;;;;;;;25.98;42.89;100088.93;1343936;106;21205;-52
2022/09/28 10:24:39;;;;;;;4.30;2.67;;;;;;;25.99;42.77;100097.27;1341046;105;21193;-51
2022/09/28 10:27:16;;;;;;;3.72;2.60;;;;;;;25.98;42.91;100088.93;1341119;105;21186;-52
2022/09/28 10:29:59;;;;;;;5.30;3.08;;;;;;;25.97;42.54;100097.05;1307763;108;21767;-52
2022/09/28 10:32:48;;;;;;;3.20;2.90;;;;;;;25.94;42.66;100101.36;1272832;112;21186;-52
2022/09/28 10:39:54;;;;;;;;;;;;;;;25.88;42.92;100106.80;1254614;113;21374;-51
2022/09/28 10:42:25;;;;;;;2.90;2.70;;;;;;;25.87;43.25;100114.43;1270125;111;20165;-52
2022/09/28 10:45:03;;;;;;;2.95;2.65;;;;;;;25.86;43.06;100111.44;1262781;112;21700;-53
2022/09/28 10:47:37;;;;;;;2.65;2.45;;;;;;;25.88;42.83;100127.27;1255408;112;21232;-55
2022/09/28 10:50:20;;;;;;;3.42;2.55;;;;;;;25.89;42.65;100122.27;1222965;113;21190;-53
2022/09/28 10:52:46;;;;;;;2.72;2.52;;;;;;;25.90;42.72;100116.81;1246351;112;21325;-53
2022/09/28 10:55:32;;;;;;;3.20;2.90;;;;;;;25.93;42.82;100118.33;1256498;112;21277;-54
2022/09/28 10:57:59;;;;;;;2.42;2.22;;;;;;;25.95;42.61;100117.69;1255158;112;21225;-51
2022/09/28 11:00:41;;;;;;;2.80;2.60;;;;;;;25.98;42.59;100114.75;1251267;112;21203;-52
2022/09/28 11:03:24;;;;;;;2.52;2.35;;;;;;;25.98;42.25;100126.25;1265857;111;21234;-53
2022/09/28 11:06:04;;;;;;;3.27;2.50;;;;;;;26.00;42.19;100123.44;1271107;109;21301;-53
2022/09/28 11:08:38;;;;;;;3.02;2.65;;;;;;;26.00;41.76;100126.10;1298148;109;21199;-54
2022/09/28 11:11:13;;;;;;;2.20;2.02;;;;;;;25.97;41.55;100118.38;1361235;104;21246;-53
2022/09/28 11:13:50;;;;;;;2.70;2.05;;;;;;;25.93;41.73;100119.66;1334743;105;22192;-53
2022/09/28 11:16:28;;;;;;;2.17;2.00;;;;;;;25.90;41.62;100119.97;1377195;100;22273;-52
2022/09/28 11:19:04;;;;;;;2.20;2.00;;;;;;;25.88;41.45;100124.61;1445330;98;21167;-52
2022/09/28 11:21:40;;;;;;;2.20;2.00;;;;;;;25.84;41.55;100132.88;1439795;98;21161;-53
2022/09/28 11:24:22;;;;;;;2.17;2.08;;;;;;;25.84;41.58;100136.88;1435536;98;21160;-52
2022/09/28 11:26:53;;;;;;;2.72;2.10;;;;;;;25.87;41.47;100140.23;1414005;100;21643;-53
2022/09/28 11:29:44;;;;;;;2.37;2.17;;;;;;;25.88;41.46;100141.94;1398691;100;21679;-52
2022/09/28 11:32:13;;;;;;;3.45;2.67;;;;;;;25.90;41.65;100142.14;1347437;104;21202;-52
2022/09/28 11:34:45;;;;;;;4.55;2.27;;;;;;;25.95;41.65;100149.68;1355005;104;21209;-53
2022/09/28 11:37:48;;;;;;;2.33;2.17;;;;;;;25.95;41.56;100156.34;1353800;105;21235;-52
2022/09/28 11:40:45;;;;;;;1.77;1.62;;;;;;;25.97;41.53;100150.38;1350549;105;21705;-51
2022/09/28 11:43:29;;;;;;;1.87;1.77;;;;;;;26.00;41.14;100148.77;1338735;105;21256;-55
2022/09/28 11:46:04;;;;;;;2.00;1.80;;;;;;;25.98;40.93;100148.92;1369679;104;21152;-53
2022/09/28 11:48:38;;;;;;;2.15;1.90;;;;;;;25.97;40.98;100157.03;1408934;101;21627;-53
2022/09/28 11:51:12;;;;;;;2.27;1.90;;;;;;;25.94;41.13;100148.02;1430031;100;21163;-53
2022/09/28 11:53:48;;;;;;;2.05;1.87;;;;;;;25.92;41.03;100164.65;1426658;99;21631;-52
2022/09/28 11:56:39;;;;;;;1.50;1.40;;;;;;;25.91;41.03;100151.80;1433311;99;21083;-53
2022/09/28 11:59:26;;;;;;;1.97;1.80;;;;;;;25.94;41.06;100158.67;1433485;98;21218;-53
2022/09/28 12:01:56;;;;;;;1.52;1.42;;;;;;;25.84;41.15;100156.05;1405732;101;21628;-54
2022/09/28 12:04:35;;;;;;;2.27;2.10;;;;;;;25.90;41.01;100149.30;1378876;103;21230;-53
2022/09/28 12:07:30;;;;;;;1.80;1.70;;;;;;;25.95;40.95;100150.52;1357461;104;21714;-53
2022/09/28 12:10:15;;;;;;;2.12;1.90;;;;;;;25.99;40.82;100153.77;1356777;104;21680;-53
2022/09/28 12:13:01;;;;;;;1.57;1.47;;;;;;;26.00;40.83;100161.61;1356252;104;21178;-52
2022/09/28 12:15:36;;;;;;;1.98;1.60;;;;;;;26.05;40.86;100163.84;1337490;104;21190;-52
2022/09/28 12:18:08;;;;;;;1.75;1.65;;;;;;;26.08;40.86;100159.08;1316966;108;21707;-52
2022/09/28 12:20:39;;;;;;;1.80;1.70;;;;;;;26.12;41.04;100159.63;1317251;107;21204;-52
2022/09/28 12:23:26;;;;;;;2.02;1.62;;;;;;;26.16;40.95;100166.34;1305674;107;21199;-51